Austwell, Texas
Current Conditions -  °F | °C
As of 2:35 AM on Friday 19 Dec 2014 (Local Time) from KPKV Reporting Station
Haze Haze  
Wind Chill: 18°   Ceiling: 700
Heat Index: 18°   Visibility: 5mi
Dew Point: 18°   Wind: 3mph
Humidity: 98%   Direction: 100°E
Pressure: 29.97"   Gusts: NA
Location:  28.39°N, 96.84°W
Report Text: KPKV 190835Z AUTO 10003KT 5SM BR BKN007 BKN019 OVC048 18/18 A2997 RMK AO2 T01830180
Loading
Personal Weather Stations






























Interactive Weather Map New forecast layout! Learn more

10-Day Weather Forecast

Advertisements
Track Severe Weather on mobile